sensor_id;sensor_type;location;lat;lon;timestamp;pressure;altitude;pressure_sealevel;temperature;humidity
21520;BME280;10921;53.614;9.882;2023-09-07T00:01:30;102047.34;;;19.84;97.97
21520;BME280;10921;53.614;9.882;2023-09-07T00:03:58;102079.13;;;19.98;98.20
21520;BME280;10921;53.614;9.882;2023-09-07T00:06:25;102081.50;;;19.93;98.04
21520;BME280;10921;53.614;9.882;2023-09-07T00:08:52;102062.19;;;19.88;98.64
21520;BME280;10921;53.614;9.882;2023-09-07T00:11:19;102047.50;;;19.75;98.78
21520;BME280;10921;53.614;9.882;2023-09-07T00:13:45;102081.69;;;19.92;97.98
21520;BME280;10921;53.614;9.882;2023-09-07T00:16:12;102082.38;;;19.86;98.40
21520;BME280;10921;53.614;9.882;2023-09-07T00:18:38;102085.41;;;19.91;98.78
21520;BME280;10921;53.614;9.882;2023-09-07T00:21:05;102081.16;;;19.88;98.49
21520;BME280;10921;53.614;9.882;2023-09-07T00:23:31;102091.31;;;19.86;97.72
21520;BME280;10921;53.614;9.882;2023-09-07T00:25:59;102086.09;;;19.85;97.85
21520;BME280;10921;53.614;9.882;2023-09-07T00:28:26;102052.09;;;19.58;97.78
21520;BME280;10921;53.614;9.882;2023-09-07T00:30:52;102041.81;;;19.53;98.52
21520;BME280;10921;53.614;9.882;2023-09-07T00:33:20;102071.06;;;19.66;97.94
21520;BME280;10921;53.614;9.882;2023-09-07T00:35:46;102089.66;;;19.77;98.58
21520;BME280;10921;53.614;9.882;2023-09-07T00:38:13;102076.47;;;19.66;97.87
21520;BME280;10921;53.614;9.882;2023-09-07T00:40:43;102060.94;;;19.52;98.26
21520;BME280;10921;53.614;9.882;2023-09-07T00:43:11;102094.25;;;19.69;98.72
21520;BME280;10921;53.614;9.882;2023-09-07T00:45:39;102088.16;;;19.66;99.24
21520;BME280;10921;53.614;9.882;2023-09-07T00:48:06;102081.38;;;19.62;98.83
21520;BME280;10921;53.614;9.882;2023-09-07T00:50:34;102084.25;;;19.61;99.13
21520;BME280;10921;53.614;9.882;2023-09-07T00:53:00;102074.47;;;19.52;99.57
21520;BME280;10921;53.614;9.882;2023-09-07T00:55:29;102079.34;;;19.56;99.79
21520;BME280;10921;53.614;9.882;2023-09-07T00:57:59;102007.28;;;19.15;99.45
21520;BME280;10921;53.614;9.882;2023-09-07T01:00:27;102084.28;;;19.53;99.71
21520;BME280;10921;53.614;9.882;2023-09-07T01:02:53;102079.03;;;19.51;99.91
21520;BME280;10921;53.614;9.882;2023-09-07T01:05:24;102072.22;;;19.47;100.00
21520;BME280;10921;53.614;9.882;2023-09-07T01:07:57;102053.44;;;19.29;100.00
21520;BME280;10921;53.614;9.882;2023-09-07T01:10:25;102073.41;;;19.45;99.59
21520;BME280;10921;53.614;9.882;2023-09-07T01:12:52;102078.97;;;19.43;99.56
21520;BME280;10921;53.614;9.882;2023-09-07T01:15:18;102073.91;;;19.40;99.24
21520;BME280;10921;53.614;9.882;2023-09-07T01:17:45;102059.03;;;19.28;99.71
21520;BME280;10921;53.614;9.882;2023-09-07T01:20:13;102084.09;;;19.38;99.99
21520;BME280;10921;53.614;9.882;2023-09-07T01:22:43;102064.09;;;19.31;99.50
21520;BME280;10921;53.614;9.882;2023-09-07T01:25:09;102059.34;;;19.25;99.43
21520;BME280;10921;53.614;9.882;2023-09-07T01:27:36;102037.75;;;19.09;100.00
21520;BME280;10921;53.614;9.882;2023-09-07T01:30:03;102066.66;;;19.24;100.00
21520;BME280;10921;53.614;9.882;2023-09-07T01:32:30;102071.72;;;19.27;100.00
21520;BME280;10921;53.614;9.882;2023-09-07T01:34:57;102081.69;;;19.27;100.00
21520;BME280;10921;53.614;9.882;2023-09-07T01:37:24;102077.47;;;19.24;99.80
21520;BME280;10921;53.614;9.882;2023-09-07T01:39:51;102076.63;;;19.24;100.00
21520;BME280;10921;53.614;9.882;2023-09-07T01:42:18;102053.97;;;19.09;100.00
21520;BME280;10921;53.614;9.882;2023-09-07T01:44:44;102078.31;;;19.17;99.52
21520;BME280;10921;53.614;9.882;2023-09-07T01:47:11;102046.84;;;19.00;99.79
21520;BME280;10921;53.614;9.882;2023-09-07T01:49:38;102076.94;;;19.13;100.00
21520;BME280;10921;53.614;9.882;2023-09-07T01:52:05;102075.78;;;19.07;100.00
21520;BME280;10921;53.614;9.882;2023-09-07T01:54:31;102075.94;;;19.06;100.00
21520;BME280;10921;53.614;9.882;2023-09-07T01:56:58;102074.09;;;19.06;100.00
21520;BME280;10921;53.614;9.882;2023-09-07T01:59:25;102067.97;;;18.96;99.49
21520;BME280;10921;53.614;9.882;2023-09-07T02:01:51;102080.16;;;19.00;100.00
21520;BME280;10921;53.614;9.882;2023-09-07T02:04:18;102075.06;;;18.97;100.00
21520;BME280;10921;53.614;9.882;2023-09-07T02:06:45;102086.91;;;18.96;100.00
21520;BME280;10921;53.614;9.882;2023-09-07T02:09:11;102093.50;;;18.93;100.00
21520;BME280;10921;53.614;9.882;2023-09-07T02:11:38;102088.44;;;18.90;100.00
21520;BME280;10921;53.614;9.882;2023-09-07T02:14:06;102080.97;;;18.84;100.00
21520;BME280;10921;53.614;9.882;2023-09-07T02:16:33;102092.63;;;18.85;100.00
21520;BME280;10921;53.614;9.882;2023-09-07T02:19:02;102097.03;;;18.86;100.00
21520;BME280;10921;53.614;9.882;2023-09-07T02:21:30;102091.94;;;18.83;100.00
21520;BME280;10921;53.614;9.882;2023-09-07T02:23:56;102092.94;;;18.82;100.00
21520;BME280;10921;53.614;9.882;2023-09-07T02:26:23;102087.22;;;18.77;100.00
21520;BME280;10921;53.614;9.882;2023-09-07T02:28:49;102090.06;;;18.75;100.00
21520;BME280;10921;53.614;9.882;2023-09-07T02:31:20;102094.31;;;18.78;100.00
21520;BME280;10921;53.614;9.882;2023-09-07T02:33:46;102092.25;;;18.72;100.00
21520;BME280;10921;53.614;9.882;2023-09-07T02:36:13;102093.09;;;18.72;100.00
21520;BME280;10921;53.614;9.882;2023-09-07T02:38:40;102083.09;;;18.65;100.00
21520;BME280;10921;53.614;9.882;2023-09-07T02:41:06;102099.69;;;18.70;100.00
21520;BME280;10921;53.614;9.882;2023-09-07T02:43:33;102086.84;;;18.64;100.00
21520;BME280;10921;53.614;9.882;2023-09-07T02:45:59;102099.31;;;18.65;100.00
21520;BME280;10921;53.614;9.882;2023-09-07T02:48:26;102095.56;;;18.57;100.00
21520;BME280;10921;53.614;9.882;2023-09-07T02:50:53;102102.81;;;18.57;100.00
21520;BME280;10921;53.614;9.882;2023-09-07T02:53:20;102077.59;;;18.40;100.00
21520;BME280;10921;53.614;9.882;2023-09-07T02:55:46;102076.22;;;18.36;100.00
21520;BME280;10921;53.614;9.882;2023-09-07T02:58:13;102095.88;;;18.46;100.00
21520;BME280;10921;53.614;9.882;2023-09-07T03:00:44;102107.88;;;18.52;100.00
21520;BME280;10921;53.614;9.882;2023-09-07T03:03:12;102114.44;;;18.49;100.00
21520;BME280;10921;53.614;9.882;2023-09-07T03:05:43;102100.59;;;18.44;100.00
21520;BME280;10921;53.614;9.882;2023-09-07T03:08:10;102073.13;;;18.23;100.00
21520;BME280;10921;53.614;9.882;2023-09-07T03:10:36;102105.47;;;18.41;100.00
21520;BME280;10921;53.614;9.882;2023-09-07T03:13:04;102100.88;;;18.33;100.00
21520;BME280;10921;53.614;9.882;2023-09-07T03:15:31;102108.47;;;18.38;100.00
21520;BME280;10921;53.614;9.882;2023-09-07T03:17:57;102108.31;;;18.39;100.00
21520;BME280;10921;53.614;9.882;2023-09-07T03:20:24;102112.03;;;18.38;100.00
21520;BME280;10921;53.614;9.882;2023-09-07T03:22:51;102111.69;;;18.33;100.00
21520;BME280;10921;53.614;9.882;2023-09-07T03:25:17;102113.69;;;18.31;100.00
21520;BME280;10921;53.614;9.882;2023-09-07T03:27:44;102087.59;;;18.14;100.00
21520;BME280;10921;53.614;9.882;2023-09-07T03:30:10;102106.34;;;18.15;100.00
21520;BME280;10921;53.614;9.882;2023-09-07T03:32:37;102121.13;;;18.29;100.00
21520;BME280;10921;53.614;9.882;2023-09-07T03:35:04;102127.53;;;18.28;100.00
21520;BME280;10921;53.614;9.882;2023-09-07T03:37:36;102113.09;;;18.19;100.00
21520;BME280;10921;53.614;9.882;2023-09-07T03:40:04;102122.75;;;18.22;100.00
21520;BME280;10921;53.614;9.882;2023-09-07T03:42:31;102137.09;;;18.22;100.00
21520;BME280;10921;53.614;9.882;2023-09-07T03:44:59;102130.31;;;18.18;100.00
21520;BME280;10921;53.614;9.882;2023-09-07T03:47:26;102128.97;;;18.14;100.00
21520;BME280;10921;53.614;9.882;2023-09-07T03:49:56;102133.53;;;18.14;100.00
21520;BME280;10921;53.614;9.882;2023-09-07T03:52:27;102134.69;;;18.11;100.00
21520;BME280;10921;53.614;9.882;2023-09-07T03:54:54;102127.22;;;18.05;100.00
21520;BME280;10921;53.614;9.882;2023-09-07T03:57:23;102134.47;;;18.05;100.00
21520;BME280;10921;53.614;9.882;2023-09-07T03:59:50;102131.03;;;17.95;100.00
21520;BME280;10921;53.614;9.882;2023-09-07T04:02:16;102138.81;;;17.98;100.00
21520;BME280;10921;53.614;9.882;2023-09-07T04:04:48;102119.34;;;17.86;100.00
21520;BME280;10921;53.614;9.882;2023-09-07T04:07:16;102121.84;;;17.87;100.00
21520;BME280;10921;53.614;9.882;2023-09-07T04:09:44;102127.78;;;17.91;100.00
21520;BME280;10921;53.614;9.882;2023-09-07T04:12:11;102128.94;;;17.88;100.00
21520;BME280;10921;53.614;9.882;2023-09-07T04:14:38;102125.41;;;17.88;100.00
21520;BME280;10921;53.614;9.882;2023-09-07T04:17:05;102123.50;;;17.80;100.00
21520;BME280;10921;53.614;9.882;2023-09-07T04:19:32;102132.00;;;17.85;100.00
21520;BME280;10921;53.614;9.882;2023-09-07T04:21:59;102132.31;;;17.82;100.00
21520;BME280;10921;53.614;9.882;2023-09-07T04:24:26;102128.06;;;17.80;100.00
21520;BME280;10921;53.614;9.882;2023-09-07T04:27:00;102128.91;;;17.80;100.00
21520;BME280;10921;53.614;9.882;2023-09-07T04:29:30;102137.63;;;17.74;100.00
21520;BME280;10921;53.614;9.882;2023-09-07T04:31:57;102098.47;;;17.52;100.00
21520;BME280;10921;53.614;9.882;2023-09-07T04:34:23;102143.88;;;17.75;100.00
21520;BME280;10921;53.614;9.882;2023-09-07T04:36:50;102143.38;;;17.71;100.00
21520;BME280;10921;53.614;9.882;2023-09-07T04:39:16;102145.38;;;17.69;100.00
21520;BME280;10921;53.614;9.882;2023-09-07T04:41:43;102149.59;;;17.72;100.00
21520;BME280;10921;53.614;9.882;2023-09-07T04:44:09;102134.25;;;17.54;100.00
21520;BME280;10921;53.614;9.882;2023-09-07T04:46:36;102151.63;;;17.70;100.00
21520;BME280;10921;53.614;9.882;2023-09-07T04:49:02;102149.75;;;17.70;100.00
21520;BME280;10921;53.614;9.882;2023-09-07T04:51:29;102154.16;;;17.71;100.00
21520;BME280;10921;53.614;9.882;2023-09-07T04:53:56;102102.09;;;17.43;100.00
21520;BME280;10921;53.614;9.882;2023-09-07T04:56:22;102154.16;;;17.71;100.00
21520;BME280;10921;53.614;9.882;2023-09-07T04:58:49;102153.13;;;17.72;100.00
21520;BME280;10921;53.614;9.882;2023-09-07T05:01:16;102165.47;;;17.75;100.00
21520;BME280;10921;53.614;9.882;2023-09-07T05:03:43;102165.31;;;17.76;100.00
21520;BME280;10921;53.614;9.882;2023-09-07T05:06:11;102160.63;;;17.78;100.00
21520;BME280;10921;53.614;9.882;2023-09-07T05:08:38;102149.13;;;17.76;100.00
21520;BME280;10921;53.614;9.882;2023-09-07T05:11:05;102172.09;;;17.80;100.00
21520;BME280;10921;53.614;9.882;2023-09-07T05:13:31;102162.69;;;17.84;100.00
21520;BME280;10921;53.614;9.882;2023-09-07T05:15:59;102166.75;;;17.88;100.00
21520;BME280;10921;53.614;9.882;2023-09-07T05:18:29;102160.19;;;17.91;100.00
21520;BME280;10921;53.614;9.882;2023-09-07T05:20:57;102161.75;;;17.93;100.00
21520;BME280;10921;53.614;9.882;2023-09-07T05:23:23;102163.44;;;17.95;100.00
21520;BME280;10921;53.614;9.882;2023-09-07T05:25:53;102166.38;;;18.01;100.00
21520;BME280;10921;53.614;9.882;2023-09-07T05:28:21;102151.78;;;17.94;100.00
21520;BME280;10921;53.614;9.882;2023-09-07T05:30:48;102161.00;;;18.09;100.00
21520;BME280;10921;53.614;9.882;2023-09-07T05:33:16;102136.13;;;17.98;100.00
21520;BME280;10921;53.614;9.882;2023-09-07T05:35:43;102172.88;;;18.16;100.00
21520;BME280;10921;53.614;9.882;2023-09-07T05:38:12;102163.09;;;18.15;100.00
21520;BME280;10921;53.614;9.882;2023-09-07T05:40:41;102131.91;;;18.03;100.00
21520;BME280;10921;53.614;9.882;2023-09-07T05:43:07;102152.44;;;18.14;100.00
21520;BME280;10921;53.614;9.882;2023-09-07T05:45:36;102176.34;;;18.35;100.00
21520;BME280;10921;53.614;9.882;2023-09-07T05:48:03;102179.28;;;18.41;100.00
21520;BME280;10921;53.614;9.882;2023-09-07T05:50:33;102167.16;;;18.45;100.00
21520;BME280;10921;53.614;9.882;2023-09-07T05:53:00;102182.00;;;18.49;100.00
21520;BME280;10921;53.614;9.882;2023-09-07T05:55:26;102173.75;;;18.51;100.00
21520;BME280;10921;53.614;9.882;2023-09-07T05:57:57;102138.03;;;18.39;100.00
21520;BME280;10921;53.614;9.882;2023-09-07T06:00:24;102147.22;;;18.46;100.00
21520;BME280;10921;53.614;9.882;2023-09-07T06:02:51;102181.50;;;18.72;100.00
21520;BME280;10921;53.614;9.882;2023-09-07T06:05:18;102180.66;;;18.79;100.00
21520;BME280;10921;53.614;9.882;2023-09-07T06:07:45;102176.94;;;18.80;100.00
21520;BME280;10921;53.614;9.882;2023-09-07T06:10:11;102161.91;;;18.78;100.00
21520;BME280;10921;53.614;9.882;2023-09-07T06:12:38;102166.50;;;18.85;100.00
21520;BME280;10921;53.614;9.882;2023-09-07T06:15:05;102136.53;;;18.71;100.00
21520;BME280;10921;53.614;9.882;2023-09-07T06:17:32;102184.31;;;19.04;100.00
21520;BME280;10921;53.614;9.882;2023-09-07T06:19:59;102161.63;;;18.97;100.00
21520;BME280;10921;53.614;9.882;2023-09-07T06:22:26;102190.09;;;19.17;100.00
21520;BME280;10921;53.614;9.882;2023-09-07T06:24:52;102182.16;;;19.16;100.00
21520;BME280;10921;53.614;9.882;2023-09-07T06:27:19;102195.19;;;19.28;100.00
21520;BME280;10921;53.614;9.882;2023-09-07T06:29:45;102169.31;;;19.18;100.00
21520;BME280;10921;53.614;9.882;2023-09-07T06:32:12;102196.56;;;19.41;100.00
21520;BME280;10921;53.614;9.882;2023-09-07T06:34:39;102187.44;;;19.42;100.00
21520;BME280;10921;53.614;9.882;2023-09-07T06:37:06;102134.13;;;19.18;100.00
21520;BME280;10921;53.614;9.882;2023-09-07T06:39:33;102197.16;;;19.69;100.00
21520;BME280;10921;53.614;9.882;2023-09-07T06:42:00;102132.13;;;19.44;100.00
21520;BME280;10921;53.614;9.882;2023-09-07T06:44:26;102161.25;;;19.91;100.00
21520;BME280;10921;53.614;9.882;2023-09-07T06:46:53;102200.00;;;20.40;100.00
21520;BME280;10921;53.614;9.882;2023-09-07T06:49:20;102169.44;;;20.54;100.00
21520;BME280;10921;53.614;9.882;2023-09-07T06:51:46;102213.50;;;21.03;99.31
21520;BME280;10921;53.614;9.882;2023-09-07T06:54:13;102210.63;;;21.36;95.81
21520;BME280;10921;53.614;9.882;2023-09-07T06:56:40;102167.31;;;21.42;92.72
21520;BME280;10921;53.614;9.882;2023-09-07T06:59:07;102197.81;;;21.90;88.33
21520;BME280;10921;53.614;9.882;2023-09-07T07:01:33;102217.03;;;22.12;85.99
21520;BME280;10921;53.614;9.882;2023-09-07T07:04:00;102205.44;;;22.32;84.90
21520;BME280;10921;53.614;9.882;2023-09-07T07:06:27;102157.59;;;22.08;82.94
21520;BME280;10921;53.614;9.882;2023-09-07T07:08:53;102170.38;;;22.23;81.47
21520;BME280;10921;53.614;9.882;2023-09-07T07:11:20;102199.38;;;22.45;80.71
21520;BME280;10921;53.614;9.882;2023-09-07T07:13:46;102194.78;;;22.45;81.11
21520;BME280;10921;53.614;9.882;2023-09-07T07:16:13;102206.69;;;22.59;80.91
21520;BME280;10921;53.614;9.882;2023-09-07T07:18:40;102205.56;;;22.68;80.79
21520;BME280;10921;53.614;9.882;2023-09-07T07:21:10;102223.66;;;22.76;78.86
21520;BME280;10921;53.614;9.882;2023-09-07T07:23:36;102148.31;;;22.47;79.04
21520;BME280;10921;53.614;9.882;2023-09-07T07:26:03;102217.19;;;22.92;78.02
21520;BME280;10921;53.614;9.882;2023-09-07T07:28:30;102186.03;;;22.79;78.05
21520;BME280;10921;53.614;9.882;2023-09-07T07:31:07;102207.03;;;23.15;78.90
21520;BME280;10921;53.614;9.882;2023-09-07T07:33:34;102201.19;;;23.18;77.30
21520;BME280;10921;53.614;9.882;2023-09-07T07:36:01;102219.13;;;23.48;74.98
21520;BME280;10921;53.614;9.882;2023-09-07T07:38:28;102220.72;;;23.58;74.28
21520;BME280;10921;53.614;9.882;2023-09-07T07:40:55;102198.47;;;23.54;74.09
21520;BME280;10921;53.614;9.882;2023-09-07T07:43:22;102219.63;;;23.73;72.77
21520;BME280;10921;53.614;9.882;2023-09-07T07:45:48;102175.94;;;23.45;72.56
21520;BME280;10921;53.614;9.882;2023-09-07T07:48:15;102212.66;;;23.71;73.79
21520;BME280;10921;53.614;9.882;2023-09-07T07:50:42;102230.22;;;23.83;73.19
21520;BME280;10921;53.614;9.882;2023-09-07T07:53:09;102234.03;;;23.89;74.43
21520;BME280;10921;53.614;9.882;2023-09-07T07:55:37;102211.50;;;23.80;74.19
21520;BME280;10921;53.614;9.882;2023-09-07T07:58:06;102233.91;;;23.97;73.25
21520;BME280;10921;53.614;9.882;2023-09-07T08:00:37;102237.69;;;24.02;71.44
21520;BME280;10921;53.614;9.882;2023-09-07T08:03:04;102234.00;;;24.10;71.31
21520;BME280;10921;53.614;9.882;2023-09-07T08:05:35;102230.47;;;24.16;71.11
21520;BME280;10921;53.614;9.882;2023-09-07T08:08:02;102212.84;;;24.12;71.43
21520;BME280;10921;53.614;9.882;2023-09-07T08:10:29;102163.59;;;23.92;71.18
21520;BME280;10921;53.614;9.882;2023-09-07T08:12:58;102198.69;;;24.23;70.06
21520;BME280;10921;53.614;9.882;2023-09-07T08:15:24;102224.06;;;24.51;69.82
21520;BME280;10921;53.614;9.882;2023-09-07T08:17:52;102207.03;;;24.49;70.20
21520;BME280;10921;53.614;9.882;2023-09-07T08:20:19;102208.34;;;24.60;69.86
21520;BME280;10921;53.614;9.882;2023-09-07T08:22:46;102202.16;;;24.73;69.26
21520;BME280;10921;53.614;9.882;2023-09-07T08:25:13;102207.66;;;24.86;69.49
21520;BME280;10921;53.614;9.882;2023-09-07T08:27:41;102228.13;;;24.97;67.12
21520;BME280;10921;53.614;9.882;2023-09-07T08:30:14;102175.75;;;24.86;68.44
21520;BME280;10921;53.614;9.882;2023-09-07T08:32:45;102202.75;;;25.09;65.81
21520;BME280;10921;53.614;9.882;2023-09-07T08:35:12;102197.50;;;25.14;67.10
21520;BME280;10921;53.614;9.882;2023-09-07T08:37:40;102217.56;;;25.41;65.61
21520;BME280;10921;53.614;9.882;2023-09-07T08:40:07;102201.59;;;25.45;65.68
21520;BME280;10921;53.614;9.882;2023-09-07T08:42:38;102228.16;;;25.71;67.21
21520;BME280;10921;53.614;9.882;2023-09-07T08:45:08;102232.78;;;25.83;65.39
21520;BME280;10921;53.614;9.882;2023-09-07T08:47:37;102226.28;;;25.98;64.83
21520;BME280;10921;53.614;9.882;2023-09-07T08:50:05;102219.78;;;26.12;62.21
21520;BME280;10921;53.614;9.882;2023-09-07T08:52:35;102218.09;;;26.24;62.63
21520;BME280;10921;53.614;9.882;2023-09-07T08:55:02;102197.03;;;26.24;60.35
21520;BME280;10921;53.614;9.882;2023-09-07T08:57:32;102225.81;;;26.60;61.23
21520;BME280;10921;53.614;9.882;2023-09-07T08:59:59;102215.66;;;26.74;60.15
21520;BME280;10921;53.614;9.882;2023-09-07T09:02:26;102220.47;;;26.91;58.91
21520;BME280;10921;53.614;9.882;2023-09-07T09:04:53;102207.81;;;27.04;56.96
21520;BME280;10921;53.614;9.882;2023-09-07T09:07:20;102212.75;;;27.26;56.70
21520;BME280;10921;53.614;9.882;2023-09-07T09:09:48;102212.38;;;27.54;57.89
21520;BME280;10921;53.614;9.882;2023-09-07T09:12:16;102200.25;;;27.75;55.66
21520;BME280;10921;53.614;9.882;2023-09-07T09:14:43;102199.38;;;27.99;54.13
21520;BME280;10921;53.614;9.882;2023-09-07T09:17:14;102167.25;;;28.07;52.83
21520;BME280;10921;53.614;9.882;2023-09-07T09:19:41;102214.88;;;28.80;52.60
21520;BME280;10921;53.614;9.882;2023-09-07T09:22:11;102212.09;;;29.17;50.83
21520;BME280;10921;53.614;9.882;2023-09-07T09:24:37;102212.63;;;29.55;51.12
21520;BME280;10921;53.614;9.882;2023-09-07T09:27:04;102207.09;;;29.97;50.94
21520;BME280;10921;53.614;9.882;2023-09-07T09:29:34;102212.63;;;30.32;47.59
21520;BME280;10921;53.614;9.882;2023-09-07T09:32:03;102211.88;;;30.71;46.20
21520;BME280;10921;53.614;9.882;2023-09-07T09:34:34;102219.72;;;31.03;48.28
21520;BME280;10921;53.614;9.882;2023-09-07T09:37:01;102219.19;;;31.29;44.50
21520;BME280;10921;53.614;9.882;2023-09-07T09:39:30;102224.75;;;31.63;45.02
21520;BME280;10921;53.614;9.882;2023-09-07T09:41:56;102216.22;;;31.76;43.02
21520;BME280;10921;53.614;9.882;2023-09-07T09:44:24;102219.72;;;32.05;42.60
21520;BME280;10921;53.614;9.882;2023-09-07T09:46:53;102213.97;;;32.23;42.43
21520;BME280;10921;53.614;9.882;2023-09-07T09:49:23;102173.91;;;32.09;41.13
21520;BME280;10921;53.614;9.882;2023-09-07T09:51:52;102205.31;;;32.58;40.73
21520;BME280;10921;53.614;9.882;2023-09-07T09:54:19;102200.25;;;32.72;41.66
21520;BME280;10921;53.614;9.882;2023-09-07T09:56:45;102197.72;;;32.87;41.10
21520;BME280;10921;53.614;9.882;2023-09-07T09:59:14;102116.47;;;32.66;41.39
21520;BME280;10921;53.614;9.882;2023-09-07T10:01:43;102189.94;;;33.33;40.83
21520;BME280;10921;53.614;9.882;2023-09-07T10:04:15;102192.53;;;33.39;40.23
21520;BME280;10921;53.614;9.882;2023-09-07T10:06:54;102197.69;;;33.58;40.06
21520;BME280;10921;53.614;9.882;2023-09-07T10:09:21;102190.88;;;33.70;38.88
21520;BME280;10921;53.614;9.882;2023-09-07T10:11:53;102138.06;;;33.45;39.60
21520;BME280;10921;53.614;9.882;2023-09-07T10:14:20;102183.81;;;33.84;37.76
21520;BME280;10921;53.614;9.882;2023-09-07T10:16:51;102180.59;;;33.98;38.84
21520;BME280;10921;53.614;9.882;2023-09-07T10:19:21;102186.47;;;34.06;37.18
21520;BME280;10921;53.614;9.882;2023-09-07T10:21:48;102179.53;;;34.04;36.98
21520;BME280;10921;53.614;9.882;2023-09-07T10:24:34;102177.13;;;34.22;38.83
21520;BME280;10921;53.614;9.882;2023-09-07T10:27:07;102186.28;;;34.18;38.00
21520;BME280;10921;53.614;9.882;2023-09-07T10:29:50;102131.34;;;34.10;35.70
21520;BME280;10921;53.614;9.882;2023-09-07T10:32:22;102161.59;;;34.16;37.24
21520;BME280;10921;53.614;9.882;2023-09-07T10:34:50;102139.66;;;34.05;36.29
21520;BME280;10921;53.614;9.882;2023-09-07T10:37:16;102150.53;;;34.16;35.23
21520;BME280;10921;53.614;9.882;2023-09-07T10:39:44;102166.03;;;34.17;35.30
21520;BME280;10921;53.614;9.882;2023-09-07T10:42:24;102129.72;;;34.14;35.56
21520;BME280;10921;53.614;9.882;2023-09-07T10:44:52;102161.56;;;34.06;33.82
21520;BME280;10921;53.614;9.882;2023-09-07T10:47:19;102151.00;;;34.08;35.15
21520;BME280;10921;53.614;9.882;2023-09-07T10:49:46;102172.16;;;34.19;34.41
21520;BME280;10921;53.614;9.882;2023-09-07T10:52:13;102164.38;;;34.16;34.55
21520;BME280;10921;53.614;9.882;2023-09-07T10:54:40;102166.34;;;34.21;35.51
21520;BME280;10921;53.614;9.882;2023-09-07T10:57:10;102155.28;;;34.26;35.04
21520;BME280;10921;53.614;9.882;2023-09-07T10:59:37;102150.28;;;34.23;35.86
21520;BME280;10921;53.614;9.882;2023-09-07T11:02:05;102142.53;;;34.25;34.77
21520;BME280;10921;53.614;9.882;2023-09-07T11:04:32;102136.00;;;34.36;34.93
21520;BME280;10921;53.614;9.882;2023-09-07T11:07:00;102148.75;;;34.42;35.77
21520;BME280;10921;53.614;9.882;2023-09-07T11:09:30;102138.25;;;34.49;34.55
21520;BME280;10921;53.614;9.882;2023-09-07T11:12:04;102141.47;;;34.94;34.92
21520;BME280;10921;53.614;9.882;2023-09-07T11:14:35;102139.09;;;34.50;34.11
21520;BME280;10921;53.614;9.882;2023-09-07T11:17:08;102143.81;;;34.49;34.21
21520;BME280;10921;53.614;9.882;2023-09-07T11:19:36;102138.00;;;34.51;34.02
21520;BME280;10921;53.614;9.882;2023-09-07T11:22:04;102130.78;;;34.50;33.56
21520;BME280;10921;53.614;9.882;2023-09-07T11:24:34;102131.38;;;34.62;33.83
21520;BME280;10921;53.614;9.882;2023-09-07T11:27:09;102131.09;;;34.69;34.40
21520;BME280;10921;53.614;9.882;2023-09-07T11:29:37;102120.00;;;34.69;33.05
21520;BME280;10921;53.614;9.882;2023-09-07T11:32:07;102120.66;;;34.86;33.25
21520;BME280;10921;53.614;9.882;2023-09-07T11:34:46;102136.22;;;34.97;34.54
21520;BME280;10921;53.614;9.882;2023-09-07T11:37:14;102128.53;;;35.45;33.80
21520;BME280;10921;53.614;9.882;2023-09-07T11:39:42;102131.81;;;35.16;33.01
21520;BME280;10921;53.614;9.882;2023-09-07T11:42:08;102110.47;;;35.12;31.28
21520;BME280;10921;53.614;9.882;2023-09-07T11:44:35;102112.38;;;35.16;31.89
21520;BME280;10921;53.614;9.882;2023-09-07T11:47:02;102124.03;;;35.18;33.00
21520;BME280;10921;53.614;9.882;2023-09-07T11:49:32;102088.81;;;35.09;32.85
21520;BME280;10921;53.614;9.882;2023-09-07T11:51:59;102115.75;;;35.34;31.68
21520;BME280;10921;53.614;9.882;2023-09-07T11:54:26;102051.34;;;35.01;32.68
21520;BME280;10921;53.614;9.882;2023-09-07T11:56:53;102104.38;;;35.35;32.06
21520;BME280;10921;53.614;9.882;2023-09-07T11:59:22;102106.06;;;35.41;32.76
21520;BME280;10921;53.614;9.882;2023-09-07T12:01:52;102102.44;;;35.51;31.93
21520;BME280;10921;53.614;9.882;2023-09-07T12:04:19;102100.75;;;35.60;33.07
21520;BME280;10921;53.614;9.882;2023-09-07T12:06:46;102104.09;;;35.52;31.39
21520;BME280;10921;53.614;9.882;2023-09-07T12:09:17;102101.88;;;35.64;33.34
21520;BME280;10921;53.614;9.882;2023-09-07T12:11:43;102093.53;;;35.79;32.04
21520;BME280;10921;53.614;9.882;2023-09-07T12:14:12;102088.69;;;36.31;31.95
21520;BME280;10921;53.614;9.882;2023-09-07T12:16:39;102039.13;;;35.68;31.71
21520;BME280;10921;53.614;9.882;2023-09-07T12:19:06;102025.22;;;35.68;31.95
21520;BME280;10921;53.614;9.882;2023-09-07T12:21:32;102091.84;;;36.04;30.50
21520;BME280;10921;53.614;9.882;2023-09-07T12:24:00;102066.28;;;35.97;31.45
21520;BME280;10921;53.614;9.882;2023-09-07T12:26:28;102076.81;;;36.05;31.86
21520;BME280;10921;53.614;9.882;2023-09-07T12:28:56;102031.88;;;35.87;30.03
21520;BME280;10921;53.614;9.882;2023-09-07T12:31:23;102079.28;;;36.16;30.64
21520;BME280;10921;53.614;9.882;2023-09-07T12:33:50;102071.78;;;36.07;30.42
21520;BME280;10921;53.614;9.882;2023-09-07T12:36:17;102060.69;;;36.07;30.61
21520;BME280;10921;53.614;9.882;2023-09-07T12:38:44;102069.56;;;36.09;30.39
21520;BME280;10921;53.614;9.882;2023-09-07T12:41:11;102067.34;;;36.16;30.65
21520;BME280;10921;53.614;9.882;2023-09-07T12:43:38;102058.22;;;36.05;30.61
21520;BME280;10921;53.614;9.882;2023-09-07T12:46:05;102057.34;;;36.15;31.25
21520;BME280;10921;53.614;9.882;2023-09-07T12:48:35;102045.66;;;36.13;31.45